createdAt,value
2016-12-09T00:00:05.488Z,10
2016-12-09T00:01:36.339Z,9
2016-12-09T00:03:09.009Z,9
2016-12-09T00:04:40.207Z,9
2016-12-09T00:06:12.460Z,9
2016-12-09T00:07:43.780Z,9
2016-12-09T00:09:15.599Z,9
2016-12-09T00:10:48.134Z,9
2016-12-09T00:12:20.001Z,9
2016-12-09T00:13:51.000Z,9
2016-12-09T00:15:02.675Z,9
2016-12-09T00:16:33.327Z,9
2016-12-09T00:18:28.174Z,9
2016-12-09T00:19:40.872Z,9
2016-12-09T00:21:11.694Z,9
2016-12-09T00:22:43.028Z,9
2016-12-09T00:24:14.416Z,9
2016-12-09T00:25:46.025Z,9
2016-12-09T00:27:17.799Z,9
2016-12-09T00:28:29.994Z,9
2016-12-09T00:29:55.832Z,9
2016-12-09T00:31:28.006Z,9
2016-12-09T00:33:00.810Z,9
2016-12-09T00:34:31.990Z,9
2016-12-09T00:35:45.012Z,9
2016-12-09T00:37:16.425Z,9
2016-12-09T00:38:48.042Z,9
2016-12-09T00:40:19.434Z,9
2016-12-09T00:41:51.605Z,9
2016-12-09T00:43:23.066Z,9
2016-12-09T00:44:54.453Z,9
2016-12-09T00:46:25.937Z,9
2016-12-09T00:47:38.750Z,9
2016-12-09T00:49:11.052Z,9
2016-12-09T00:50:42.839Z,9
2016-12-09T00:52:15.670Z,9
2016-12-09T00:53:49.077Z,9
2016-12-09T00:55:20.706Z,9
2016-12-09T00:56:52.210Z,9
2016-12-09T00:58:24.630Z,9
2016-12-09T00:59:56.209Z,9
2016-12-09T01:01:26.248Z,9
2016-12-09T01:03:03.014Z,9
2016-12-09T01:04:40.317Z,9
2016-12-09T01:06:37.866Z,9
2016-12-09T01:08:08.247Z,9
2016-12-09T01:09:20.950Z,9
2016-12-09T01:10:51.812Z,9
2016-12-09T01:12:23.557Z,9
2016-12-09T01:13:54.715Z,9
2016-12-09T01:15:21.215Z,9
2016-12-09T01:17:02.496Z,9
2016-12-09T01:18:36.405Z,9
2016-12-09T01:20:07.712Z,9
2016-12-09T01:21:39.064Z,9
2016-12-09T01:23:10.628Z,9
2016-12-09T01:24:42.180Z,9
2016-12-09T01:26:13.062Z,9
2016-12-09T01:27:24.774Z,9
2016-12-09T01:28:55.653Z,9
2016-12-09T01:30:27.177Z,9
2016-12-09T01:31:58.534Z,9
2016-12-09T01:33:29.908Z,9
2016-12-09T01:35:00.862Z,9
2016-12-09T01:36:13.240Z,9
2016-12-09T01:37:44.363Z,9
2016-12-09T01:39:15.328Z,9
2016-12-09T01:40:46.313Z,9
2016-12-09T01:42:17.760Z,9
2016-12-09T01:43:49.055Z,9
2016-12-09T01:45:20.069Z,9
2016-12-09T01:46:31.785Z,9
2016-12-09T01:48:02.977Z,9
2016-12-09T01:49:33.843Z,9
2016-12-09T01:51:04.752Z,9
2016-12-09T01:52:36.038Z,9
2016-12-09T01:54:07.567Z,9
2016-12-09T01:55:19.216Z,9
2016-12-09T01:56:49.942Z,9
2016-12-09T01:58:20.817Z,9
2016-12-09T01:59:52.304Z,9
2016-12-09T02:01:23.472Z,9
2016-12-09T02:02:54.391Z,9
2016-12-09T02:04:06.047Z,9
2016-12-09T02:05:37.235Z,9
2016-12-09T02:07:08.260Z,9
2016-12-09T02:08:39.157Z,9
2016-12-09T02:10:10.238Z,9
2016-12-09T02:11:41.394Z,9
2016-12-09T02:12:53.383Z,9
2016-12-09T02:14:24.084Z,9
2016-12-09T02:15:50.131Z,9
2016-12-09T02:17:02.340Z,9
2016-12-09T02:18:34.584Z,9
2016-12-09T02:20:05.570Z,9
2016-12-09T02:21:37.385Z,9
2016-12-09T02:23:08.846Z,10
2016-12-09T02:24:39.765Z,10
2016-12-09T02:26:11.570Z,10
2016-12-09T02:27:42.588Z,10
2016-12-09T02:28:54.665Z,10
2016-12-09T02:30:25.895Z,10
2016-12-09T02:31:57.453Z,10
2016-12-09T02:33:28.764Z,10
2016-12-09T02:34:59.970Z,10
2016-12-09T02:36:31.374Z,10
2016-12-09T02:38:02.505Z,10
2016-12-09T02:39:14.223Z,10
2016-12-09T02:40:45.445Z,10
2016-12-09T02:42:17.106Z,10
2016-12-09T02:43:48.209Z,10
2016-12-09T02:45:19.121Z,10
2016-12-09T02:46:50.363Z,10
2016-12-09T02:48:22.206Z,10
2016-12-09T02:49:55.744Z,10
2016-12-09T02:51:07.767Z,10
2016-12-09T02:52:33.783Z,10
2016-12-09T02:53:59.551Z,10
2016-12-09T02:55:11.571Z,10
2016-12-09T02:56:42.254Z,10
2016-12-09T02:58:13.752Z,10
2016-12-09T02:59:44.812Z,10
2016-12-09T03:00:56.683Z,10
2016-12-09T03:02:27.798Z,10
2016-12-09T03:03:58.961Z,10
2016-12-09T03:05:29.870Z,10
2016-12-09T03:07:01.184Z,10
2016-12-09T03:08:13.140Z,10
2016-12-09T03:09:44.088Z,10
2016-12-09T03:11:15.756Z,10
2016-12-09T03:12:42.324Z,10
2016-12-09T03:13:54.059Z,10
2016-12-09T03:15:25.620Z,10
2016-12-09T03:16:56.546Z,10
2016-12-09T03:18:27.517Z,10
2016-12-09T03:19:58.795Z,10
2016-12-09T03:21:30.208Z,10
2016-12-09T03:22:42.134Z,10
2016-12-09T03:24:13.260Z,10
2016-12-09T03:25:39.209Z,11
2016-12-09T03:26:51.119Z,11
2016-12-09T03:28:22.019Z,11
2016-12-09T03:29:53.265Z,11
2016-12-09T03:31:24.363Z,11
2016-12-09T03:32:55.550Z,11
2016-12-09T03:34:26.653Z,11
2016-12-09T03:35:38.310Z,11
2016-12-09T03:37:10.309Z,11
2016-12-09T03:38:41.486Z,11
2016-12-09T03:40:12.936Z,11
2016-12-09T03:41:44.355Z,11
2016-12-09T03:43:15.331Z,11
2016-12-09T03:44:46.459Z,11
2016-12-09T03:46:18.008Z,11
2016-12-09T03:47:29.985Z,11
2016-12-09T03:49:00.895Z,11
2016-12-09T03:50:27.274Z,11
2016-12-09T03:51:39.330Z,11
2016-12-09T03:53:10.098Z,11
2016-12-09T03:54:41.575Z,11
2016-12-09T03:56:12.972Z,11
2016-12-09T03:57:43.922Z,11
2016-12-09T03:59:15.381Z,11
2016-12-09T04:00:46.702Z,11
2016-12-09T04:01:59.056Z,11
2016-12-09T04:03:29.967Z,11
2016-12-09T04:05:00.981Z,11
2016-12-09T04:06:35.701Z,11
2016-12-09T04:08:07.432Z,11
2016-12-09T04:09:38.391Z,11
2016-12-09T04:11:11.025Z,11
2016-12-09T04:12:42.861Z,11
2016-12-09T04:14:13.986Z,11
2016-12-09T04:15:47.433Z,12
2016-12-09T04:16:59.644Z,12
2016-12-09T04:20:36.352Z,11
2016-12-09T04:22:02.935Z,12
2016-12-09T04:23:35.346Z,12
2016-12-09T04:25:03.087Z,12
2016-12-09T04:26:15.007Z,12
2016-12-09T04:27:46.629Z,12
2016-12-09T04:29:17.766Z,12
2016-12-09T04:30:48.673Z,12
2016-12-09T04:32:00.664Z,12
2016-12-09T04:33:32.121Z,12
2016-12-09T04:35:03.129Z,12
2016-12-09T04:37:03.969Z,12
2016-12-09T04:38:41.066Z,12
2016-12-09T04:40:15.312Z,12
2016-12-09T04:42:09.803Z,12
2016-12-09T04:43:47.242Z,12
2016-12-09T04:45:24.812Z,12
2016-12-09T04:47:23.815Z,12
2016-12-09T04:50:36.987Z,12
2016-12-09T04:52:32.032Z,12
2016-12-09T04:54:04.033Z,12
2016-12-09T04:55:16.120Z,12
2016-12-09T04:57:08.426Z,12
2016-12-09T04:58:20.798Z,12
2016-12-09T05:00:14.897Z,12
2016-12-09T05:01:27.626Z,12
2016-12-09T05:02:59.076Z,12
2016-12-09T05:04:31.277Z,12
2016-12-09T05:06:02.452Z,12
2016-12-09T05:07:33.452Z,12
2016-12-09T05:09:04.376Z,12
2016-12-09T05:10:35.531Z,12
2016-12-09T05:12:07.789Z,12
2016-12-09T05:13:20.982Z,12
2016-12-09T05:14:53.023Z,12
2016-12-09T05:16:24.333Z,12
2016-12-09T05:17:55.634Z,12
2016-12-09T05:19:26.858Z,12
2016-12-09T05:20:58.224Z,12
2016-12-09T05:22:29.405Z,12
2016-12-09T05:23:41.173Z,12
2016-12-09T05:25:12.180Z,12
2016-12-09T05:26:43.474Z,12
2016-12-09T05:28:14.714Z,12
2016-12-09T05:29:46.624Z,12
2016-12-09T05:31:17.849Z,12
2016-12-09T05:32:49.019Z,12
2016-12-09T05:34:21.239Z,12
2016-12-09T05:35:33.398Z,12
2016-12-09T05:37:04.504Z,12
2016-12-09T05:38:36.734Z,12
2016-12-09T05:40:08.242Z,12
2016-12-09T05:41:39.870Z,12
2016-12-09T05:43:11.396Z,12
2016-12-09T05:44:43.429Z,12
2016-12-09T05:46:14.820Z,12
2016-12-09T05:47:26.867Z,12
2016-12-09T05:48:59.943Z,12
2016-12-09T05:50:32.789Z,12
2016-12-09T05:52:04.213Z,12
2016-12-09T05:53:35.729Z,12
2016-12-09T05:55:10.467Z,12
2016-12-09T05:56:44.227Z,12
2016-12-09T05:58:17.925Z,12
2016-12-09T05:59:48.975Z,12
2016-12-09T06:01:20.015Z,12
2016-12-09T06:02:50.879Z,12
2016-12-09T06:04:22.341Z,12
2016-12-09T06:05:53.247Z,12
2016-12-09T06:07:05.025Z,12
2016-12-09T06:08:36.036Z,12
2016-12-09T06:10:07.504Z,12
2016-12-09T06:11:38.458Z,12
2016-12-09T06:13:09.461Z,12
2016-12-09T06:14:40.312Z,12
2016-12-09T06:16:11.704Z,12
2016-12-09T06:17:24.241Z,12
2016-12-09T06:18:54.926Z,12
2016-12-09T06:20:25.911Z,12
2016-12-09T06:21:57.431Z,12
2016-12-09T06:23:28.339Z,12
2016-12-09T06:24:59.643Z,12
2016-12-09T06:26:11.361Z,12
2016-12-09T06:27:42.691Z,12
2016-12-09T06:29:13.574Z,12
2016-12-09T06:30:44.775Z,12
2016-12-09T06:32:15.716Z,12
2016-12-09T06:33:46.855Z,12
2016-12-09T06:34:58.742Z,12
2016-12-09T06:36:29.777Z,12
2016-12-09T06:38:01.282Z,12
2016-12-09T06:39:32.442Z,12
2016-12-09T06:41:03.354Z,12
2016-12-09T06:42:34.797Z,12
2016-12-09T06:44:06.474Z,12
2016-12-09T06:45:18.505Z,12
2016-12-09T06:46:44.245Z,12
2016-12-09T06:48:15.249Z,12
2016-12-09T06:49:46.505Z,12
2016-12-09T06:50:58.411Z,12
2016-12-09T06:52:29.100Z,12
2016-12-09T06:54:00.001Z,12
2016-12-09T06:55:31.023Z,12
2016-12-09T06:57:02.811Z,12
2016-12-09T06:58:33.675Z,12
2016-12-09T06:59:45.363Z,12
2016-12-09T07:01:16.164Z,12
2016-12-09T07:02:47.397Z,12
2016-12-09T07:04:18.820Z,12
2016-12-09T07:05:49.931Z,12
2016-12-09T07:07:21.690Z,12
2016-12-09T07:08:33.968Z,12
2016-12-09T07:10:04.930Z,12
2016-12-09T07:11:36.050Z,12
2016-12-09T07:13:07.536Z,12
2016-12-09T07:14:38.721Z,12
2016-12-09T07:16:10.077Z,12
2016-12-09T07:17:41.071Z,12
2016-12-09T07:18:53.075Z,12
2016-12-09T07:20:24.716Z,12
2016-12-09T07:21:55.670Z,12
2016-12-09T07:23:26.578Z,12
2016-12-09T07:24:57.707Z,12
2016-12-09T07:26:31.394Z,12
2016-12-09T07:27:57.627Z,12
2016-12-09T07:29:09.431Z,12
2016-12-09T07:30:40.541Z,12
2016-12-09T07:32:11.481Z,12
2016-12-09T07:33:42.623Z,12
2016-12-09T07:34:54.641Z,12
2016-12-09T07:36:25.474Z,12
2016-12-09T07:37:57.088Z,12
2016-12-09T07:39:28.426Z,12
2016-12-09T07:40:54.625Z,12
2016-12-09T07:42:06.971Z,12
2016-12-09T07:43:37.726Z,12
2016-12-09T07:45:08.866Z,12
2016-12-09T07:46:39.888Z,12
2016-12-09T07:48:11.329Z,12
2016-12-09T07:49:42.575Z,12
2016-12-09T07:50:54.890Z,12
2016-12-09T07:52:25.698Z,13
2016-12-09T07:53:56.993Z,13
2016-12-09T07:55:27.859Z,13
2016-12-09T07:56:59.349Z,13
2016-12-09T07:58:30.305Z,13
2016-12-09T07:59:42.109Z,13
2016-12-09T08:01:13.363Z,13
2016-12-09T08:02:44.682Z,13
2016-12-09T08:04:15.861Z,13
2016-12-09T08:05:46.834Z,13
2016-12-09T08:07:18.170Z,13
2016-12-09T08:08:49.808Z,13
2016-12-09T08:10:01.723Z,13
2016-12-09T08:11:32.434Z,13
2016-12-09T08:13:03.630Z,13
2016-12-09T08:14:35.276Z,13
2016-12-09T08:16:06.303Z,13
2016-12-09T08:17:37.477Z,13
2016-12-09T08:18:49.396Z,13
2016-12-09T08:20:15.246Z,13
2016-12-09T08:21:46.180Z,13
2016-12-09T08:23:17.722Z,13
2016-12-09T08:24:30.006Z,13
2016-12-09T08:26:01.082Z,13
2016-12-09T08:27:32.555Z,13
2016-12-09T08:29:03.719Z,13
2016-12-09T08:30:34.945Z,13
2016-12-09T08:32:05.835Z,13
2016-12-09T08:33:17.785Z,13
2016-12-09T08:34:49.363Z,13
2016-12-09T08:36:20.624Z,13
2016-12-09T08:37:51.688Z,13
2016-12-09T08:39:17.678Z,13
2016-12-09T08:40:31.164Z,13
2016-12-09T08:42:02.220Z,14
2016-12-09T08:43:33.901Z,14
2016-12-09T08:45:05.092Z,14
2016-12-09T08:46:36.630Z,14
2016-12-09T08:48:08.624Z,14
2016-12-09T08:49:39.639Z,14
2016-12-09T08:50:51.378Z,14
2016-12-09T08:52:22.648Z,14
2016-12-09T08:53:53.887Z,14
2016-12-09T08:55:25.118Z,14
2016-12-09T08:56:58.457Z,14
2016-12-09T08:58:29.869Z,14
2016-12-09T09:00:01.338Z,14
2016-12-09T09:01:33.462Z,14
2016-12-09T09:03:04.573Z,14
2016-12-09T09:04:16.370Z,14
2016-12-09T09:05:47.592Z,14
2016-12-09T09:07:18.769Z,14
2016-12-09T09:08:49.743Z,14
2016-12-09T09:10:20.759Z,14
2016-12-09T09:11:51.963Z,14
2016-12-09T09:13:03.937Z,14
2016-12-09T09:14:34.635Z,14
2016-12-09T09:16:05.987Z,14
2016-12-09T09:17:37.447Z,14
2016-12-09T09:18:49.420Z,14
2016-12-09T09:20:20.342Z,14
2016-12-09T09:21:51.381Z,14
2016-12-09T09:23:23.410Z,14
2016-12-09T09:24:54.735Z,14
2016-12-09T09:26:26.310Z,14
2016-12-09T09:27:57.249Z,14
2016-12-09T09:29:09.818Z,14
2016-12-09T09:30:41.825Z,15
2016-12-09T09:32:13.072Z,15
2016-12-09T09:33:44.502Z,15
2016-12-09T09:35:16.430Z,15
2016-12-09T09:36:47.264Z,15
2016-12-09T09:38:18.214Z,15
2016-12-09T09:39:49.283Z,15
2016-12-09T09:41:01.489Z,15
2016-12-09T09:42:32.285Z,15
2016-12-09T09:44:03.221Z,15
2016-12-09T09:45:34.741Z,15
2016-12-09T09:47:06.258Z,15
2016-12-09T09:48:37.639Z,15
2016-12-09T09:49:49.783Z,15
2016-12-09T09:51:20.606Z,15
2016-12-09T09:52:52.165Z,15
2016-12-09T09:54:23.352Z,15
2016-12-09T09:55:54.243Z,15
2016-12-09T09:57:25.183Z,15
2016-12-09T09:58:56.568Z,15
2016-12-09T10:00:08.767Z,15
2016-12-09T10:01:39.594Z,15
2016-12-09T10:03:10.691Z,15
2016-12-09T10:04:42.198Z,15
2016-12-09T10:06:13.341Z,15
2016-12-09T10:07:44.440Z,15
2016-12-09T10:08:56.102Z,15
2016-12-09T10:10:28.134Z,15
2016-12-09T10:11:59.434Z,15
2016-12-09T10:13:30.651Z,15
2016-12-09T10:15:01.815Z,15
2016-12-09T10:16:32.992Z,15
2016-12-09T10:18:03.931Z,15
2016-12-09T10:19:15.901Z,15
2016-12-09T10:20:46.670Z,15
2016-12-09T10:22:17.843Z,15
2016-12-09T10:23:49.289Z,15
2016-12-09T10:25:20.189Z,15
2016-12-09T10:26:51.176Z,15
2016-12-09T10:28:24.669Z,15
2016-12-09T10:29:36.549Z,15
2016-12-09T10:31:07.476Z,15
2016-12-09T10:32:38.651Z,15
2016-12-09T10:34:10.243Z,15
2016-12-09T10:37:20.333Z,15
2016-12-09T10:38:51.089Z,15
2016-12-09T10:40:22.334Z,15
2016-12-09T10:41:53.312Z,15
2016-12-09T10:43:24.259Z,15
2016-12-09T10:44:55.311Z,15
2016-12-09T10:46:07.857Z,15
2016-12-09T10:47:38.566Z,15
2016-12-09T10:49:09.637Z,15
2016-12-09T10:50:40.611Z,15
2016-12-09T10:52:11.862Z,15
2016-12-09T10:53:43.040Z,15
2016-12-09T10:54:54.740Z,15
2016-12-09T10:56:25.448Z,15
2016-12-09T10:57:56.378Z,15
2016-12-09T10:59:27.258Z,15
2016-12-09T11:00:53.202Z,15
2016-12-09T11:02:05.391Z,15
2016-12-09T11:03:36.598Z,15
2016-12-09T11:05:08.031Z,15
2016-12-09T11:06:34.131Z,15
2016-12-09T11:07:46.453Z,15
2016-12-09T11:09:17.485Z,15
2016-12-09T11:10:48.985Z,15
2016-12-09T11:12:20.593Z,15
2016-12-09T11:13:52.622Z,15
2016-12-09T11:15:24.429Z,15
2016-12-09T11:16:36.784Z,15
2016-12-09T11:18:08.533Z,15
2016-12-09T11:20:05.762Z,15
2016-12-09T11:21:37.454Z,15
2016-12-09T11:22:49.457Z,15
2016-12-09T11:24:20.808Z,15
2016-12-09T11:25:52.102Z,15
2016-12-09T11:27:23.868Z,15
2016-12-09T11:28:55.229Z,15
2016-12-09T11:30:07.304Z,16
2016-12-09T11:31:38.051Z,16
2016-12-09T11:33:09.231Z,16
2016-12-09T11:34:40.156Z,16
2016-12-09T11:36:11.073Z,16
2016-12-09T11:37:42.076Z,16
2016-12-09T11:38:54.333Z,16
2016-12-09T11:40:24.990Z,16
2016-12-09T11:41:55.889Z,16
2016-12-09T11:43:27.206Z,16
2016-12-09T11:44:58.428Z,16
2016-12-09T11:46:29.400Z,16
2016-12-09T11:47:41.755Z,16
2016-12-09T11:49:12.495Z,16
2016-12-09T11:50:44.321Z,16
2016-12-09T11:52:16.239Z,16
2016-12-09T11:53:47.310Z,16
2016-12-09T11:55:19.025Z,16
2016-12-09T11:56:50.204Z,16
2016-12-09T11:58:01.972Z,16
2016-12-09T11:59:35.423Z,16
2016-12-09T12:01:08.331Z,16
2016-12-09T12:02:39.648Z,16
2016-12-09T12:04:10.991Z,16
2016-12-09T12:05:42.405Z,16
2016-12-09T12:07:13.632Z,16
2016-12-09T12:08:44.811Z,16
2016-12-09T12:10:16.329Z,16
2016-12-09T12:11:28.883Z,16
2016-12-09T12:13:00.580Z,16
2016-12-09T12:14:27.578Z,16
2016-12-09T12:15:39.979Z,16
2016-12-09T12:17:11.273Z,16
2016-12-09T12:18:43.138Z,16
2016-12-09T12:20:15.002Z,16
2016-12-09T12:21:45.879Z,16
2016-12-09T12:23:12.031Z,16
2016-12-09T12:24:23.753Z,16
2016-12-09T12:25:54.523Z,16
2016-12-09T12:27:25.772Z,16
2016-12-09T12:28:56.683Z,16
2016-12-09T12:30:08.881Z,16
2016-12-09T12:31:39.698Z,16
2016-12-09T12:33:11.366Z,16
2016-12-09T12:34:42.780Z,16
2016-12-09T12:36:13.794Z,16
2016-12-09T12:37:44.883Z,16
2016-12-09T12:39:15.969Z,16
2016-12-09T12:40:28.150Z,16
2016-12-09T12:41:58.997Z,16
2016-12-09T12:43:29.875Z,16
2016-12-09T12:45:01.614Z,16
2016-12-09T12:46:32.614Z,16
2016-12-09T12:48:03.687Z,16
2016-12-09T12:49:15.797Z,16
2016-12-09T12:50:46.841Z,16
2016-12-09T12:52:12.674Z,16
2016-12-09T12:53:44.956Z,16
2016-12-09T12:54:57.557Z,16
2016-12-09T12:56:28.597Z,16
2016-12-09T12:58:00.243Z,16
2016-12-09T12:59:31.353Z,16
2016-12-09T13:01:03.103Z,16
2016-12-09T13:02:34.054Z,16
2016-12-09T13:04:04.953Z,16
2016-12-09T13:05:17.561Z,16
2016-12-09T13:06:49.851Z,16
2016-12-09T13:08:20.974Z,16
2016-12-09T13:09:51.963Z,16
2016-12-09T13:11:22.969Z,15
2016-12-09T13:12:54.177Z,15
2016-12-09T13:14:25.496Z,15
2016-12-09T13:15:57.084Z,15
2016-12-09T13:17:09.090Z,15
2016-12-09T13:18:39.801Z,15
2016-12-09T13:20:11.041Z,15
2016-12-09T13:22:17.933Z,15
2016-12-09T13:23:48.739Z,15
2016-12-09T13:25:19.716Z,15
2016-12-09T13:26:50.629Z,15
2016-12-09T13:28:21.857Z,15
2016-12-09T13:29:33.873Z,15
2016-12-09T13:31:07.234Z,15
2016-12-09T13:32:33.115Z,15
2016-12-09T13:33:59.004Z,15
2016-12-09T13:35:11.397Z,15
2016-12-09T13:36:44.289Z,15
2016-12-09T13:37:57.599Z,15
2016-12-09T13:39:30.779Z,15
2016-12-09T13:41:01.798Z,15
2016-12-09T13:42:33.146Z,15
2016-12-09T13:44:05.394Z,15
2016-12-09T13:45:36.599Z,15
2016-12-09T13:47:07.920Z,15
2016-12-09T13:48:20.200Z,15
2016-12-09T13:49:51.605Z,15
2016-12-09T13:51:23.756Z,15
2016-12-09T13:52:55.531Z,15
2016-12-09T13:54:26.472Z,15
2016-12-09T13:55:57.726Z,15
2016-12-09T13:57:29.138Z,16
2016-12-09T13:58:41.418Z,16
2016-12-09T14:00:14.273Z,16
2016-12-09T14:01:45.722Z,15
2016-12-09T14:03:17.801Z,15
2016-12-09T14:04:49.416Z,15
2016-12-09T14:06:20.623Z,15
2016-12-09T14:07:52.158Z,15
2016-12-09T14:09:23.863Z,15
2016-12-09T14:10:54.897Z,15
2016-12-09T14:12:06.868Z,15
2016-12-09T14:13:38.499Z,15
2016-12-09T14:15:10.389Z,15
2016-12-09T14:16:41.577Z,15
2016-12-09T14:18:12.965Z,16
2016-12-09T14:19:44.098Z,16
2016-12-09T14:21:15.289Z,16
2016-12-09T14:22:27.464Z,16
2016-12-09T14:23:58.442Z,16
2016-12-09T14:27:02.333Z,16
2016-12-09T14:28:33.744Z,16
2016-12-09T14:30:05.653Z,16
2016-12-09T14:31:36.543Z,16
2016-12-09T14:33:07.728Z,16
2016-12-09T14:34:19.447Z,16
2016-12-09T14:35:50.852Z,16
2016-12-09T14:37:21.794Z,16
2016-12-09T14:38:52.634Z,16
2016-12-09T14:40:24.219Z,16
2016-12-09T14:41:56.052Z,16
2016-12-09T14:43:27.210Z,16
2016-12-09T14:44:38.965Z,16
2016-12-09T14:46:09.696Z,16
2016-12-09T14:47:40.825Z,16
2016-12-09T14:49:11.698Z,16
2016-12-09T14:50:37.861Z,16
2016-12-09T14:51:49.577Z,16
2016-12-09T14:53:21.029Z,16
2016-12-09T14:54:53.644Z,16
2016-12-09T14:56:25.158Z,16
2016-12-09T14:57:56.323Z,16
2016-12-09T14:59:08.134Z,16
2016-12-09T15:00:38.991Z,16
2016-12-09T15:02:12.454Z,16
2016-12-09T15:04:10.938Z,16
2016-12-09T15:05:39.294Z,16
2016-12-09T15:06:51.346Z,16
2016-12-09T15:08:22.071Z,16
2016-12-09T15:09:53.049Z,16
2016-12-09T15:11:24.105Z,16
2016-12-09T15:12:35.798Z,16
2016-12-09T15:14:06.565Z,16
2016-12-09T15:15:37.749Z,16
2016-12-09T15:17:10.294Z,16
2016-12-09T15:18:41.564Z,16
2016-12-09T15:20:12.491Z,16
2016-12-09T15:21:49.804Z,16
2016-12-09T15:23:20.860Z,16
2016-12-09T15:24:51.915Z,16
2016-12-09T15:26:22.888Z,16
2016-12-09T15:27:34.862Z,16
2016-12-09T15:29:05.915Z,16
2016-12-09T15:30:37.218Z,16
2016-12-09T15:32:03.124Z,16
2016-12-09T15:33:15.284Z,16
2016-12-09T15:34:46.083Z,16
2016-12-09T15:36:17.235Z,16
2016-12-09T15:37:48.589Z,16
2016-12-09T15:39:19.527Z,16
2016-12-09T15:40:31.289Z,16
2016-12-09T15:42:04.420Z,16
2016-12-09T15:43:35.362Z,16
2016-12-09T15:45:08.635Z,16
2016-12-09T15:46:39.646Z,16
2016-12-09T15:48:10.759Z,16
2016-12-09T15:49:36.953Z,16
2016-12-09T15:50:51.071Z,16
2016-12-09T15:52:23.214Z,16
2016-12-09T15:54:17.243Z,16
2016-12-09T15:55:29.794Z,16
2016-12-09T15:56:56.259Z,16
2016-12-09T15:58:08.190Z,16
2016-12-09T15:59:40.079Z,16
2016-12-09T16:01:11.134Z,16
2016-12-09T16:02:43.154Z,16
2016-12-09T16:04:14.272Z,16
2016-12-09T16:05:45.894Z,16
2016-12-09T16:07:16.894Z,16
2016-12-09T16:08:29.006Z,16
2016-12-09T16:10:00.699Z,16
2016-12-09T16:11:32.720Z,16
2016-12-09T16:13:03.728Z,16
2016-12-09T16:14:34.797Z,16
2016-12-09T16:16:06.048Z,16
2016-12-09T16:17:33.892Z,16
2016-12-09T16:18:45.663Z,16
2016-12-09T16:20:16.747Z,16
2016-12-09T16:21:47.712Z,16
2016-12-09T16:23:18.796Z,16
2016-12-09T16:24:30.539Z,16
2016-12-09T16:26:01.395Z,16
2016-12-09T16:27:32.595Z,16
2016-12-09T16:29:04.033Z,16
2016-12-09T16:30:35.711Z,16
2016-12-09T16:32:07.057Z,16
2016-12-09T16:33:41.095Z,16
2016-12-09T16:35:12.780Z,16
2016-12-09T16:36:44.006Z,16
2016-12-09T16:37:56.247Z,16
2016-12-09T16:39:23.443Z,16
2016-12-09T16:40:55.382Z,16
2016-12-09T16:42:26.889Z,16
2016-12-09T16:43:58.198Z,16
2016-12-09T16:45:10.166Z,16
2016-12-09T16:46:44.378Z,16
2016-12-09T16:48:16.693Z,16
2016-12-09T16:49:49.901Z,16
2016-12-09T16:51:21.772Z,16
2016-12-09T16:52:53.070Z,16
2016-12-09T16:54:25.168Z,16
2016-12-09T16:55:56.285Z,16
2016-12-09T16:57:27.975Z,16
2016-12-09T16:58:59.567Z,16
2016-12-09T17:00:30.644Z,16
2016-12-09T17:02:03.717Z,16
2016-12-09T17:03:35.822Z,16
2016-12-09T17:04:48.456Z,16
2016-12-09T17:06:19.339Z,16
2016-12-09T17:07:50.533Z,16
2016-12-09T17:09:22.563Z,16
2016-12-09T17:10:53.796Z,16
2016-12-09T17:12:25.954Z,16
2016-12-09T17:14:03.930Z,16
2016-12-09T17:15:30.060Z,16
2016-12-09T17:16:41.845Z,16
2016-12-09T17:18:12.719Z,16
2016-12-09T17:19:44.892Z,16
2016-12-09T17:21:16.470Z,16
2016-12-09T17:22:48.036Z,16
2016-12-09T17:24:19.070Z,16
2016-12-09T17:25:50.232Z,16
2016-12-09T17:27:02.291Z,16
2016-12-09T17:28:34.887Z,16
2016-12-09T17:30:06.189Z,16
2016-12-09T17:31:38.695Z,15
2016-12-09T17:33:09.746Z,15
2016-12-09T17:34:40.971Z,15
2016-12-09T17:36:12.210Z,15
2016-12-09T17:37:43.447Z,15
2016-12-09T17:38:55.224Z,15
2016-12-09T17:40:26.306Z,15
2016-12-09T17:41:58.254Z,15
2016-12-09T17:43:29.891Z,15
2016-12-09T17:45:02.204Z,15
2016-12-09T17:46:33.736Z,15
2016-12-09T17:48:07.035Z,15
2016-12-09T17:49:38.404Z,15
2016-12-09T17:51:10.391Z,16
2016-12-09T17:52:42.423Z,15
2016-12-09T17:54:14.013Z,15
2016-12-09T17:55:26.155Z,15
2016-12-09T17:56:57.311Z,16
2016-12-09T17:58:29.967Z,16
2016-12-09T17:59:56.107Z,16
2016-12-09T18:01:08.316Z,16
2016-12-09T18:02:40.269Z,16
2016-12-09T18:04:06.863Z,16
2016-12-09T18:05:40.914Z,16
2016-12-09T18:07:11.974Z,16
2016-12-09T18:08:43.300Z,16
2016-12-09T18:09:54.965Z,16
2016-12-09T18:11:26.367Z,16
2016-12-09T18:12:57.635Z,16
2016-12-09T18:14:28.673Z,16
2016-12-09T18:15:59.573Z,16
2016-12-09T18:17:30.628Z,16
2016-12-09T18:19:02.190Z,16
2016-12-09T18:20:13.995Z,16
2016-12-09T18:21:45.539Z,16
2016-12-09T18:23:16.725Z,16
2016-12-09T18:24:47.926Z,16
2016-12-09T18:26:18.970Z,16
2016-12-09T18:27:50.069Z,16
2016-12-09T18:29:02.277Z,16
2016-12-09T18:30:33.704Z,16
2016-12-09T18:32:05.076Z,16
2016-12-09T18:33:31.604Z,16
2016-12-09T18:35:03.276Z,16
2016-12-09T18:36:16.171Z,16
2016-12-09T18:37:48.639Z,16
2016-12-09T18:39:50.114Z,16
2016-12-09T18:41:15.931Z,16
2016-12-09T18:42:28.148Z,16
2016-12-09T18:44:00.126Z,16
2016-12-09T18:45:31.617Z,16
2016-12-09T18:47:02.816Z,16
2016-12-09T18:48:35.450Z,16
2016-12-09T18:50:07.250Z,16
2016-12-09T18:51:38.872Z,16
2016-12-09T18:53:10.432Z,16
2016-12-09T18:54:41.483Z,16
2016-12-09T18:55:53.646Z,16
2016-12-09T18:57:19.760Z,16
2016-12-09T18:58:50.814Z,17
2016-12-09T19:00:22.683Z,17
2016-12-09T19:01:34.360Z,17
2016-12-09T19:03:05.543Z,17
2016-12-09T19:04:36.851Z,17
2016-12-09T19:06:08.338Z,17
2016-12-09T19:07:39.283Z,17
2016-12-09T19:09:05.807Z,17
2016-12-09T19:10:18.023Z,17
2016-12-09T19:11:49.112Z,17
2016-12-09T19:13:20.652Z,16
2016-12-09T19:14:52.061Z,16
2016-12-09T19:16:23.014Z,16
2016-12-09T19:17:36.056Z,16
2016-12-09T19:19:07.712Z,16
2016-12-09T19:20:39.759Z,16
2016-12-09T19:22:11.398Z,16
2016-12-09T19:23:42.674Z,16
2016-12-09T19:25:08.865Z,16
2016-12-09T19:26:21.187Z,16
2016-12-09T19:27:52.279Z,16
2016-12-09T19:29:23.544Z,16
2016-12-09T19:30:55.320Z,16
2016-12-09T19:32:26.290Z,16
2016-12-09T19:33:57.260Z,16
2016-12-09T19:35:09.364Z,16
2016-12-09T19:36:42.594Z,16
2016-12-09T19:38:08.400Z,16
2016-12-09T19:39:39.357Z,16
2016-12-09T19:40:51.143Z,16
2016-12-09T19:42:21.960Z,16
2016-12-09T19:43:53.317Z,16
2016-12-09T19:45:24.513Z,16
2016-12-09T19:46:55.837Z,16
2016-12-09T19:48:27.147Z,16
2016-12-09T19:49:58.550Z,16
2016-12-09T19:51:10.912Z,16
2016-12-09T19:52:43.770Z,16
2016-12-09T19:54:16.052Z,17
2016-12-09T19:55:48.052Z,16
2016-12-09T19:57:19.377Z,16
2016-12-09T19:58:50.573Z,16
2016-12-09T20:00:22.149Z,16
2016-12-09T20:01:53.349Z,17
2016-12-09T20:03:24.832Z,17
2016-12-09T20:04:36.626Z,17
2016-12-09T20:06:08.409Z,17
2016-12-09T20:07:39.620Z,17
2016-12-09T20:09:11.397Z,17
2016-12-09T20:10:42.650Z,17
2016-12-09T20:12:14.086Z,17
2016-12-09T20:13:45.472Z,17
2016-12-09T20:15:16.482Z,17
2016-12-09T20:16:29.033Z,17
2016-12-09T20:17:59.800Z,17
2016-12-09T20:19:34.506Z,17
2016-12-09T20:21:05.404Z,17
2016-12-09T20:22:18.075Z,17
2016-12-09T20:23:49.953Z,17
2016-12-09T20:25:17.492Z,17
2016-12-09T20:26:49.052Z,17
2016-12-09T20:28:20.069Z,17
2016-12-09T20:29:51.630Z,17
2016-12-09T20:31:04.623Z,17
2016-12-09T20:32:36.295Z,17
2016-12-09T20:34:07.815Z,17
2016-12-09T20:35:40.210Z,17
2016-12-09T20:37:13.160Z,17
2016-12-09T20:38:45.236Z,17
2016-12-09T20:40:16.488Z,17
2016-12-09T20:41:48.561Z,16
2016-12-09T20:43:17.137Z,16
2016-12-09T20:44:29.239Z,16
2016-12-09T20:46:00.440Z,16
2016-12-09T20:47:32.149Z,16
2016-12-09T20:49:03.736Z,16
2016-12-09T20:50:34.819Z,16
2016-12-09T20:52:01.287Z,16
2016-12-09T20:53:13.080Z,16
2016-12-09T20:54:44.470Z,16
2016-12-09T20:56:15.444Z,16
2016-12-09T20:57:46.731Z,16
2016-12-09T20:58:58.543Z,16
2016-12-09T21:00:24.438Z,16
2016-12-09T21:01:56.325Z,16
2016-12-09T21:03:27.433Z,16
2016-12-09T21:04:39.198Z,16
2016-12-09T21:06:10.220Z,16
2016-12-09T21:07:43.832Z,16
2016-12-09T21:09:15.116Z,16
2016-12-09T21:10:46.721Z,16
2016-12-09T21:12:17.980Z,16
2016-12-09T21:13:49.425Z,16